x

West Bermuda - 240 Nm West Of Bermuda (41048) Wave Buoy

8:50am - Sun 28th Aug 2016 All times are UTC.

  • Sig Wave height 6.9ft
  • Swell Direction
  • Peak Period 8s
  • Average Period 6s
  • Wind
    29mph, 36mph gusts
  • Sea Temp 84°f
  • Air Temp 82°f
  • Sea Pressure 1010.6mb

More Historic Weather Station data

Upgrade to MSW Pro to gain access to the past 30 days of data for over 8000 Wavebouys and Weather Stations around the globe.

Join Pro

Comparision Forecast

View Surf forecast
   
Sun 08/28 8:50am 7ft 8s 6s 29 36 mph 1010.6mb 84f 82f
7:50am 6.5ft 8s 6s 27 34 mph 1011mb 84f 83f
6:50am 6.5ft 8s 5s 27 36 mph 1012.1mb 84f 82f
5:50am 6.5ft 8s 5s 20 27 mph 1013mb 84f 81f
4:50am 6ft 8s 5s 20 25 mph 1013.7mb 84f 83f
3:50am 5ft 7s 5s 25 31 mph 1014.4mb 84f 81f
2:50am 5ft 7s 5s 20 25 mph 1014.8mb 84f 83f
1:50am 4.5ft 8s 5s 20 22 mph 1014.8mb 84f 84f
12:50am 4.5ft 8s 5s 20 25 mph 1014.9mb 84f 84f
Sat 08/27 11:50pm 4ft 7s 5s 16 20 mph 1014.6mb 84f 83f
10:50pm 4ft 7s 5s 13 16 mph 1014.4mb 84f 82f
9:50pm 3.5ft 8s 5s 13 16 mph 1014.3mb 84f 82f
8:50pm 4ft 8s 5s 16 18 mph 1014.7mb 84f 82f
7:50pm 4ft 5s 4s 16 18 mph 1015.1mb 84f 81f
6:50pm 4ft 8s 4s 16 18 mph 1015.3mb 84f 82f
5:50pm 4ft 8s 5s 16 20 mph 1015.6mb 84f 83f
4:50pm 3.5ft 8s 5s 18 20 mph 1016mb 84f 83f
3:50pm 3.5ft 8s 5s 16 18 mph 1016.2mb 84f 83f
2:50pm 3.5ft 8s 5s 13 16 mph 1016.5mb 84f 83f
1:50pm 3.5ft 8s 5s 13 16 mph 1016.4mb 84f 83f
12:50pm 3ft 9s 6s 11 16 mph 1016.3mb 84f 83f
11:50am 3ft 8s 6s 9 11 mph 1016.1mb 84f 83f
10:50am 3ft 8s 6s 9
mph
1016.1mb 84f 83f
9:50am 3.5ft 9s 7s 9 11 mph 1015.8mb 84f 82f
8:50am 3ft 8s 7s 9 11 mph 1015.3mb 84f 82f
7:50am 3.5ft 9s 7s 9 11 mph 1015mb 84f 82f
6:50am 3.5ft 9s 7s 4 7 mph 1014.7mb 84f 81f
5:50am 3.5ft 9s 7s 4
mph
1015mb 84f 81f
4:50am 4ft 9s 7s 2
mph
1015.3mb 84f 81f
3:50am 4ft 9s 7s  -  2 mph 1015.8mb 84f 81f
2:50am 3.5ft 9s 7s 2 4 mph 1016.1mb 84f 81f
1:50am 3.5ft 9s 7s 4
mph
1016.4mb 84f 81f
12:50am 4ft 8s 7s 7 9 mph 1016.1mb 84f 82f
Fri 08/26 11:50pm 3.5ft 9s 7s 7 9 mph 1015.8mb 84f 82f
10:50pm 4ft 8s 7s 7 9 mph 1015.4mb 84f 82f
9:50pm 4ft 8s 7s 7 11 mph 1015.3mb 85f 83f
8:50pm 3.5ft 8s 7s 7 9 mph 1015.2mb 85f 82f
7:50pm 3.5ft 9s 6s 9 11 mph 1015.2mb 85f 83f
6:50pm 4ft 9s 6s 9 11 mph 1015.4mb 85f 83f
5:50pm 4ft 9s 6s 7 9 mph 1016.1mb 85f 83f
4:50pm 4.5ft 9s 7s 7 9 mph 1016.7mb 84f 83f
3:50pm 4ft 10s 6s 9 11 mph 1017mb 84f 83f
2:50pm 4.5ft 10s 6s 11 13 mph 1016.8mb 84f 82f
1:50pm 4.5ft 9s 6s 11 13 mph 1016.8mb 84f 82f
12:50pm 4.5ft 10s 6s 13 16 mph 1016.7mb 84f 82f
11:50am 4ft 10s 6s 13 16 mph 1016.6mb 84f 82f
10:50am 4ft 9s 6s 13 16 mph 1016.3mb 84f 82f
9:50am 4ft 10s 6s 11 16 mph 1015.8mb 84f 82f
8:50am 4.5ft 7s 6s 11 13 mph 1015.3mb 84f 82f
7:50am 4.5ft 10s 6s 11 16 mph 1015.1mb 84f 82f
6:50am 4.5ft 6s 5s 11 13 mph 1015.2mb 84f 82f
5:50am 4.5ft 9s 5s 13 16 mph 1015.3mb 84f 82f
4:50am 4.5ft 7s 5s 13 16 mph 1015.9mb 84f 82f
3:50am 4.5ft 8s 5s 16 18 mph 1016mb 84f 83f
2:50am 4.5ft 6s 6s 16 18 mph 1016.1mb 84f 83f
1:50am 4.5ft 8s 6s 16
mph
1016.4mb 84f 83f
12:50am 4ft 8s 5s 13 16 mph 1016.6mb 84f 83f
Thu 08/25 11:50pm 4.5ft 8s 5s 11 13 mph 1016.1mb 84f 83f
10:50pm 3.5ft 6s 5s 13 16 mph 1015.6mb 84f 83f
9:50pm 4ft 8s 5s 11 13 mph 1015.6mb 84f 83f
8:50pm 4ft 8s 5s 13 16 mph 1015.4mb 84f 83f
7:50pm 4.5ft 7s 5s 16 18 mph 1015.7mb 84f 83f
6:50pm 4ft 6s 5s 16 20 mph 1016.1mb 84f 83f
5:50pm 4.5ft 6s 5s 18 22 mph 1016.5mb 84f 83f
4:50pm 4.5ft 7s 5s 16 20 mph 1016.3mb 84f 83f
3:50pm 5ft 7s 5s 18 20 mph 1016.5mb 84f 83f
2:50pm 5ft 6s 5s 20 22 mph 1017mb 84f 83f
1:50pm 5ft 7s 5s 18 22 mph 1017mb 84f 82f
12:50pm 5.5ft 6s 5s 20 25 mph 1016.7mb 84f 82f
11:50am 5.5ft 6s 5s 16 25 mph 1016.7mb 84f 80f
10:50am 5.5ft 7s 5s 22 27 mph 1016.3mb 84f 82f
9:50am 5ft 6s 5s 22 25 mph 1016.1mb 84f 82f
8:50am 5ft 6s 5s 22 27 mph 1015.7mb 84f 82f
7:50am 5ft 6s 5s 22 25 mph 1015.9mb 84f 82f
6:50am 5ft 8s 5s 18 22 mph 1016.2mb 84f 83f
5:50am 4.5ft 8s 5s 18 20 mph 1016.3mb 84f 83f
4:50am 5ft 7s 5s 20 22 mph 1017mb 84f 83f
2:50am 5.5ft 7s 5s 16 18 mph 1018.1mb 84f 82f
1:50am 5ft 7s 5s 18 20 mph 1018.3mb 84f 82f
12:50am 6ft 7s 6s 20 22 mph 1018.3mb 84f 83f
Wed 08/24 11:50pm 6ft 7s 5s 22 25 mph 1018.1mb 84f 80f
10:50pm 7ft 7s 6s 20 25 mph 1018.2mb 84f 83f
9:50pm 6.5ft 7s 6s 20 25 mph 1017.9mb 84f 83f
8:50pm 6.5ft 7s 6s 22 25 mph 1018mb 84f 83f
7:50pm 7ft 8s 6s 22 25 mph 1018.1mb 84f 83f
6:50pm 7ft 7s 6s 20 25 mph 1018.6mb 84f 83f
5:50pm 6ft 6s 5s 22 25 mph 1019mb 84f 83f
4:50pm 6ft 7s  -  22 29 mph 1018.7mb 84f 83f
3:50pm 6ft 6s 5s 22 25 mph 1019.4mb 84f 80f
2:50pm 6ft 10s 5s 25 27 mph 1019.6mb 84f 83f
1:50pm 6ft 7s 5s 22 27 mph 1019.6mb 85f 83f
12:50pm 6ft 6s 5s 22 27 mph 1019.3mb 85f 82f
11:50am 5.5ft 10s 5s 25 29 mph 1019.2mb 85f 81f
10:50am 5ft 10s 5s 27 31 mph 1018.7mb 85f 82f